createdAt,value
2019-05-18T00:11:49.114Z,74.13
2019-05-18T00:17:39.120Z,100.00
2019-05-18T00:22:47.454Z,74.13
2019-05-18T00:28:04.181Z,100.00
2019-05-18T00:33:46.147Z,74.13
2019-05-18T00:38:54.133Z,74.13
2019-05-18T00:44:03.416Z,74.13
2019-05-18T00:50:17.443Z,55.89
2019-05-18T00:55:25.505Z,74.13
2019-05-18T01:00:36.941Z,74.13
2019-05-18T01:05:50.294Z,74.13
2019-05-18T01:10:57.715Z,74.13
2019-05-18T01:16:05.338Z,70.99
2019-05-18T01:21:16.090Z,73.15
2019-05-18T01:26:23.471Z,73.15
2019-05-18T01:31:30.924Z,74.63
2019-05-18T01:36:38.314Z,73.22
2019-05-18T01:41:45.788Z,71.46
2019-05-18T01:46:53.235Z,100.00
2019-05-18T03:51:53.161Z,70.79
2019-05-18T03:57:00.561Z,70.79
2019-05-18T04:02:07.928Z,78.15
2019-05-18T04:07:15.424Z,76.81
2019-05-18T04:12:22.765Z,75.41
2019-05-18T04:19:07.133Z,75.14
2019-05-18T04:24:14.518Z,75.14
2019-05-18T04:29:21.889Z,74.33
2019-05-18T04:34:44.775Z,74.51
2019-05-18T04:40:56.438Z,74.51
2019-05-18T04:50:51.278Z,79.81
2019-05-18T04:57:41.369Z,74.51
2019-05-18T05:06:05.384Z,74.51
2019-05-18T05:11:38.544Z,74.51
2019-05-18T05:21:49.639Z,74.51
2019-05-18T05:31:26.950Z,74.51
2019-05-18T05:36:46.862Z,74.51
2019-05-18T05:42:30.625Z,100.00
2019-05-18T05:48:17.195Z,74.51
2019-05-18T05:53:40.738Z,74.51
2019-05-18T06:01:20.182Z,74.51
2019-05-18T06:11:32.821Z,74.51
2019-05-18T06:16:42.894Z,74.51
2019-05-18T06:22:21.968Z,74.51
2019-05-18T06:32:20.533Z,59.95
2019-05-18T06:37:28.106Z,64.87
2019-05-18T06:42:35.551Z,67.31
2019-05-18T06:47:43.054Z,68.49
2019-05-18T06:52:50.939Z,66.89
2019-05-18T06:58:00.926Z,67.28
2019-05-18T07:03:08.390Z,66.51
2019-05-18T07:08:15.828Z,66.42
2019-05-18T07:13:23.309Z,65.30
2019-05-18T07:18:31.847Z,64.76
2019-05-18T07:23:39.292Z,64.70
2019-05-18T07:28:46.732Z,63.49
2019-05-18T07:33:54.166Z,62.82
2019-05-18T07:39:01.711Z,63.23
2019-05-18T07:44:10.252Z,63.38
2019-05-18T07:49:17.679Z,63.51
2019-05-18T07:54:25.339Z,63.24
2019-05-18T07:59:32.803Z,61.57
2019-05-18T08:04:40.586Z,61.61
2019-05-18T08:09:48.051Z,62.14
2019-05-18T08:14:55.484Z,61.25
2019-05-18T08:20:02.882Z,59.86
2019-05-18T08:25:10.639Z,61.14
2019-05-18T08:30:18.268Z,61.25
2019-05-18T08:35:27.330Z,61.36
2019-05-18T08:40:34.982Z,60.21
2019-05-18T08:45:42.523Z,58.38
2019-05-18T08:50:49.969Z,58.40
2019-05-18T08:55:57.437Z,59.41
2019-05-18T09:01:05.043Z,58.32
2019-05-18T09:06:12.508Z,58.72
2019-05-18T09:11:19.973Z,55.55
2019-05-18T09:16:27.457Z,55.94
2019-05-18T09:21:34.872Z,57.09
2019-05-18T09:26:42.618Z,55.96
2019-05-18T09:31:50.036Z,54.94
2019-05-18T09:36:57.506Z,54.23
2019-05-18T09:42:05.121Z,52.50
2019-05-18T09:47:12.951Z,53.17
2019-05-18T09:52:20.527Z,51.25
2019-05-18T09:57:28.113Z,49.76
2019-05-18T10:08:29.038Z,49.67
2019-05-18T10:13:36.486Z,49.66
2019-05-18T10:18:45.139Z,48.77
2019-05-18T10:23:52.537Z,49.71
2019-05-18T10:29:00.328Z,48.37
2019-05-18T10:34:07.814Z,47.39
2019-05-18T10:39:15.302Z,47.56
2019-05-18T10:44:22.744Z,48.84
2019-05-18T10:49:30.202Z,48.37
2019-05-18T10:54:37.765Z,46.08
2019-05-18T10:59:45.207Z,45.94
2019-05-18T11:04:53.896Z,47.06
2019-05-18T11:10:01.710Z,44.26
2019-05-18T11:15:11.379Z,45.47
2019-05-18T11:26:33.761Z,43.28
2019-05-18T11:31:41.676Z,43.45
2019-05-18T11:36:49.457Z,44.65
2019-05-18T11:41:57.031Z,40.07
2019-05-18T11:47:05.732Z,42.80
2019-05-18T11:52:16.198Z,38.64
2019-05-18T11:57:24.158Z,39.62
2019-05-18T12:02:31.795Z,40.28
2019-05-18T12:07:39.771Z,38.41
2019-05-18T12:13:14.019Z,38.93
2019-05-18T12:18:23.530Z,37.18
2019-05-18T12:23:31.217Z,36.76
2019-05-18T12:28:40.541Z,36.09
2019-05-18T12:33:48.379Z,36.48
2019-05-18T12:38:56.315Z,37.69
2019-05-18T12:44:03.985Z,34.08
2019-05-18T12:49:11.715Z,32.97
2019-05-18T12:54:29.324Z,32.41
2019-05-18T12:59:28.099Z,30.58
2019-05-18T13:04:35.626Z,29.84
2019-05-18T13:09:44.374Z,29.21
2019-05-18T13:14:51.828Z,29.87
2019-05-18T13:19:59.168Z,30.62
2019-05-18T13:25:06.891Z,30.43
2019-05-18T13:30:19.566Z,28.43
2019-05-18T13:35:25.135Z,30.19
2019-05-18T13:40:32.523Z,26.98
2019-05-18T13:45:39.878Z,25.95
2019-05-18T13:50:47.353Z,26.82
2019-05-18T13:55:54.717Z,25.76
2019-05-18T14:01:02.181Z,25.90
2019-05-18T14:06:09.557Z,27.08
2019-05-18T14:11:17.005Z,26.63
2019-05-18T14:16:24.444Z,25.12
2019-05-18T14:21:31.865Z,26.29
2019-05-18T14:26:39.365Z,27.21
2019-05-18T14:31:46.757Z,25.42
2019-05-18T14:36:54.161Z,23.72
2019-05-18T14:42:01.521Z,23.76
2019-05-18T14:47:08.953Z,25.08
2019-05-18T14:52:16.365Z,25.74
2019-05-18T14:57:26.043Z,24.50
2019-05-18T15:02:33.700Z,23.56
2019-05-18T15:07:41.407Z,25.53
2019-05-18T15:12:48.920Z,26.14
2019-05-18T15:17:58.493Z,29.30
2019-05-18T15:23:05.870Z,30.17
2019-05-18T15:28:13.382Z,29.59
2019-05-18T15:33:22.853Z,31.56
2019-05-18T15:38:54.507Z,32.10
2019-05-18T15:44:02.030Z,30.12
2019-05-18T15:49:09.476Z,30.90
2019-05-18T15:54:16.872Z,29.83
2019-05-18T15:59:24.681Z,30.50
2019-05-18T16:04:32.332Z,30.44
2019-05-18T16:09:41.701Z,29.88
2019-05-18T16:14:49.108Z,29.37
2019-05-18T16:19:56.564Z,31.20
2019-05-18T16:25:04.513Z,32.44
2019-05-18T16:30:12.398Z,35.47
2019-05-18T16:35:20.649Z,36.63
2019-05-18T16:40:28.166Z,38.44
2019-05-18T16:45:35.614Z,36.39
2019-05-18T16:50:43.199Z,38.19
2019-05-18T16:55:51.099Z,38.43
2019-05-18T17:00:58.565Z,41.34
2019-05-18T17:06:06.295Z,40.93
2019-05-18T17:11:13.866Z,41.32
2019-05-18T17:16:21.463Z,41.61
2019-05-18T17:21:29.198Z,44.03
2019-05-18T17:26:51.520Z,44.30
2019-05-18T17:31:46.407Z,47.10
2019-05-18T17:36:56.529Z,45.88
2019-05-18T17:42:05.192Z,48.06
2019-05-18T17:47:12.809Z,47.67
2019-05-18T17:52:20.344Z,48.01
2019-05-18T17:57:28.092Z,47.70
2019-05-18T18:02:35.871Z,49.93
2019-05-18T18:07:44.829Z,51.12
2019-05-18T18:12:52.294Z,52.44
2019-05-18T18:18:00.241Z,53.53
2019-05-18T18:23:09.285Z,54.18
2019-05-18T18:28:17.432Z,54.70
2019-05-18T18:33:24.966Z,55.70
2019-05-18T18:38:33.823Z,55.71
2019-05-18T18:43:41.275Z,56.21
2019-05-18T18:48:48.773Z,56.95
2019-05-18T18:53:56.261Z,57.22
2019-05-18T18:59:03.696Z,57.53
2019-05-18T19:04:11.354Z,59.48
2019-05-18T19:09:18.955Z,60.06
2019-05-18T19:14:26.404Z,59.62
2019-05-18T19:19:33.761Z,60.10
2019-05-18T19:24:41.208Z,61.58
2019-05-18T19:29:48.705Z,62.33
2019-05-18T19:34:56.163Z,62.28
2019-05-18T19:40:03.668Z,62.55
2019-05-18T19:45:13.339Z,63.31
2019-05-18T19:50:21.015Z,62.94
2019-05-18T20:01:58.649Z,64.27
2019-05-18T20:07:06.231Z,64.14
2019-05-18T20:12:13.854Z,64.69
2019-05-18T20:17:21.319Z,62.93
2019-05-18T20:22:28.699Z,63.77
2019-05-18T20:27:36.168Z,65.18
2019-05-18T20:32:43.606Z,65.99
2019-05-18T20:37:51.022Z,65.48
2019-05-18T20:42:58.422Z,65.29
2019-05-18T20:48:05.935Z,64.96
2019-05-18T20:53:13.355Z,66.39
2019-05-18T20:58:20.867Z,66.37
2019-05-18T21:03:28.465Z,66.51
2019-05-18T21:08:35.920Z,65.43
2019-05-18T21:13:43.302Z,64.70
2019-05-18T21:18:50.849Z,66.16
2019-05-18T21:23:58.321Z,64.96
2019-05-18T21:29:05.990Z,66.42
2019-05-18T21:34:13.496Z,67.82
2019-05-18T21:39:20.930Z,68.17
2019-05-18T21:44:28.466Z,67.44
2019-05-18T21:49:35.934Z,65.94
2019-05-18T21:54:44.219Z,66.89
2019-05-18T21:59:51.628Z,66.20
2019-05-18T22:04:59.074Z,67.47
2019-05-18T22:10:07.915Z,66.11
2019-05-18T22:15:15.929Z,66.44
2019-05-18T22:20:23.455Z,68.07
2019-05-18T22:25:30.950Z,68.57
2019-05-18T22:30:38.432Z,69.20
2019-05-18T22:35:45.895Z,69.73
2019-05-18T22:40:53.318Z,69.40
2019-05-18T22:46:00.785Z,69.87
2019-05-18T22:51:08.239Z,68.43
2019-05-18T22:56:15.783Z,68.70
2019-05-18T23:01:23.193Z,68.25
2019-05-18T23:06:31.555Z,67.09
2019-05-18T23:11:38.926Z,66.75
2019-05-18T23:16:46.287Z,69.18
2019-05-18T23:21:53.927Z,69.68
2019-05-18T23:27:02.337Z,67.84
2019-05-18T23:32:09.685Z,68.29
2019-05-18T23:37:17.093Z,69.21
2019-05-18T23:42:24.466Z,68.97
2019-05-18T23:47:32.821Z,67.59
2019-05-18T23:52:40.268Z,69.57
2019-05-18T23:57:47.644Z,69.12
